You are not logged in, Click here to log in
ICAO: ZJSY Country: 中華人民共和國海南省三亚市凤凰镇
Latitude: 18.3037 Longitude: 109.413
Total Arrivals: 5 Total Departures: 6
Latest Arrival: FS23 (ZGSZ-ZJSY)CHU. CHUHAO Latest Departure: H9Z322 (ZJSY-ZGSZ)CHU. CHUHAO
Scenery:
METAR : ZJSY 210700Z 26005MPS 220V300 9999 FEW020 31/26 Q1004 NOSIG

三亞鳳凰國際機場